Weather at Orlando International Airport

Public forecast

Using degrees Fahrenheit for public forecast. Weather courtesy of forecast.io.

Current aviation weather report (METAR) for Orlando International Airport

Retrieved 2021/04/20 17:20 UTC (1 minute ago):

KMCO 201720Z 03017G26KT 1/2SM R35L/2400V4500FT +TSRA FG SCT006 OVC014CB 20/19 A2993 RMK AO2 PK WND 02026/1717 LTG DSNT SW AND W TSE03B05 PRESFR FRQ LTGICCG OHD TS OHD MOV NE P0062 T02000194

Aviation forecast (TAF) for Orlando International Airport

Retrieved 2021/04/20 12:24 UTC (5 hours ago):

TAF KMCO 201121Z 2012/2118 06005KT P6SM -SHRA BKN015 OVC030 FM201400 15006KT 4SM TSRA BKN015 OVC025CB FM201800 VRB06KT 3SM TSRA BKN010 OVC025CB FM202300 05010KT P6SM VCSH BKN020 OVC040 FM210500 23005KT P6SM SCT025 OVC090 FM211400 29008KT P6SM FEW030